Beulah, Mississippi
Current Conditions -  °F | °C
As of 4:15 PM on Tuesday 25 Nov 2014 (Local Time) from KRNV Reporting Station
Clear Clear  
Wind Chill: 48°   Ceiling: Unl
Heat Index: 48°   Visibility: 10mi
Dew Point: 27°   Wind: 3mph
Humidity: 44%   Direction: 360°N
Pressure: 30.18"   Gusts: NA
Location:  33.79°N, 90.98°W
Report Text: KRNV 252215Z AUTO 36003KT 10SM CLR 09/M03 A3018 RMK AO2 T00891028
Loading
Personal Weather Stations






























Interactive Weather Map New forecast layout! Learn more

10-Day Weather Forecast

Advertisements
Track Severe Weather on mobile